Time;durP1;ratioP1;P1;durP2;ratioP2;P2;SDS_P1;SDS_P2;PMS_P1;PMS_P2;Temp;Humidity;BMP_temperature;BMP_pressure;BME280_temperature;BME280_humidity;BME280_pressure;Samples;Min_cycle;Max_cycle;Signal;HPM_P1;HPM_P2
2022/06/25 00:01:05;;;;;;;1.70;1.10;;;;;;;;;;4971515;28;20217;-77
2022/06/25 00:05:27;;;;;;;1.10;1.00;;;;;;;;;;4983024;28;20190;-76
2022/06/25 00:07:33;;;;;;;3.10;1.17;;;;;;;;;;4994294;28;20546;-77
2022/06/25 00:10:38;;;;;;;3.43;1.23;;;;;;;;;;4982299;28;20214;-77
2022/06/25 00:13:42;;;;;;;1.93;1.30;;;;;;;;;;4982197;28;20197;-76
2022/06/25 00:16:46;;;;;;;2.63;1.40;;;;;;;;;;4982796;28;20538;-78
2022/06/25 00:19:50;;;;;;;2.73;1.40;;;;;;;;;;4982627;28;20178;-77
2022/06/25 00:22:54;;;;;;;1.33;1.23;;;;;;;;;;4982674;28;20518;-77
2022/06/25 00:25:58;;;;;;;3.90;1.37;;;;;;;;;;4982897;28;20186;-77
2022/06/25 00:29:03;;;;;;;1.67;1.53;;;;;;;;;;4971618;28;20657;-77
2022/06/25 00:32:09;;;;;;;3.43;1.37;;;;;;;;;;4982424;28;20217;-77
2022/06/25 00:35:15;;;;;;;2.70;1.30;;;;;;;;;;4971716;28;20182;-76
2022/06/25 00:38:19;;;;;;;1.50;1.40;;;;;;;;;;4971760;28;20177;-77
2022/06/25 00:41:23;;;;;;;3.17;1.40;;;;;;;;;;4982666;28;20221;-77
2022/06/25 00:44:29;;;;;;;2.40;1.20;;;;;;;;;;4971429;28;20534;-76
2022/06/25 00:47:34;;;;;;;2.27;1.57;;;;;;;;;;4971239;28;20178;-76
2022/06/25 00:50:38;;;;;;;1.67;1.57;;;;;;;;;;4982141;28;20230;-76
2022/06/25 00:53:44;;;;;;;1.97;1.63;;;;;;;;;;4982454;28;20190;-77
2022/06/25 00:56:51;;;;;;;1.70;1.60;;;;;;;;;;4971230;28;20629;-77
2022/06/25 01:00:05;;;;;;;2.00;1.20;;;;;;;;;;4982279;28;20183;-77
2022/06/25 01:03:09;;;;;;;2.67;1.77;;;;;;;;;;4971066;28;20642;-77
2022/06/25 01:06:13;;;;;;;2.17;1.83;;;;;;;;;;4971465;28;20174;-77
2022/06/25 01:09:17;;;;;;;3.10;1.47;;;;;;;;;;4960446;28;20206;-76
2022/06/25 01:12:21;;;;;;;2.27;1.57;;;;;;;;;;4971488;28;20217;-77
2022/06/25 01:15:27;;;;;;;2.63;1.93;;;;;;;;;;4982270;28;20526;-77
2022/06/25 01:18:31;;;;;;;2.60;1.63;;;;;;;;;;4971278;28;20183;-77
2022/06/25 01:21:36;;;;;;;2.40;1.53;;;;;;;;;;4971082;28;20222;-77
2022/06/25 01:24:40;;;;;;;1.57;1.37;;;;;;;;;;4975047;28;20187;-78
2022/06/25 01:27:46;;;;;;;4.87;2.10;;;;;;;;;;4975241;28;20182;-77
2022/06/25 01:30:51;;;;;;;1.80;1.70;;;;;;;;;;4974446;28;20234;-76
2022/06/25 01:33:55;;;;;;;5.20;1.67;;;;;;;;;;4974767;28;20622;-77
2022/06/25 01:36:59;;;;;;;3.80;1.80;;;;;;;;;;4963686;28;20178;-77
2022/06/25 01:40:03;;;;;;;3.00;1.80;;;;;;;;;;4974688;28;20633;-77
2022/06/25 01:43:07;;;;;;;2.07;1.70;;;;;;;;;;4985325;28;20185;-77
2022/06/25 01:46:13;;;;;;;3.50;2.10;;;;;;;;;;4962390;28;20202;-77
2022/06/25 01:49:18;;;;;;;3.23;1.60;;;;;;;;;;4984499;28;20677;-76
2022/06/25 01:52:22;;;;;;;4.27;1.80;;;;;;;;;;4984776;28;20221;-76
2022/06/25 01:55:26;;;;;;;2.13;1.93;;;;;;;;;;4984983;28;20186;-77
2022/06/25 01:58:31;;;;;;;7.63;1.77;;;;;;;;;;4963015;28;20517;-77
2022/06/25 02:01:36;;;;;;;7.07;2.10;;;;;;;;;;4984536;28;20214;-76
2022/06/25 02:04:41;;;;;;;2.80;1.70;;;;;;;;;;4984994;28;20185;-77
2022/06/25 02:07:45;;;;;;;2.00;1.80;;;;;;;;;;4962717;28;20202;-77
2022/06/25 02:10:54;;;;;;;2.10;1.90;;;;;;;;;;4984401;28;20226;-77
2022/06/25 02:13:58;;;;;;;4.50;2.00;;;;;;;;;;4984243;28;20206;-77
2022/06/25 02:17:05;;;;;;;1.70;1.57;;;;;;;;;;4974429;28;20190;-77
2022/06/25 02:20:09;;;;;;;2.73;1.73;;;;;;;;;;4962188;28;20174;-76
2022/06/25 02:23:15;;;;;;;3.30;1.40;;;;;;;;;;4973451;28;20182;-77
2022/06/25 02:26:19;;;;;;;2.70;1.30;;;;;;;;;;4984392;28;20179;-77
2022/06/25 02:29:22;;;;;;;4.07;1.90;;;;;;;;;;4973306;28;20206;-78
2022/06/25 02:32:30;;;;;;;2.27;1.70;;;;;;;;;;4973258;28;20218;-77
2022/06/25 02:35:34;;;;;;;3.10;1.40;;;;;;;;;;4983972;28;20527;-77
2022/06/25 02:38:39;;;;;;;4.13;1.50;;;;;;;;;;4973282;28;20179;-77
2022/06/25 02:41:45;;;;;;;4.33;1.20;;;;;;;;;;4984041;28;20214;-77
2022/06/25 02:44:49;;;;;;;2.10;1.60;;;;;;;;;;4983897;28;20518;-77
2022/06/25 02:47:53;;;;;;;7.07;1.77;;;;;;;;;;4984041;28;20182;-76
2022/06/25 02:50:58;;;;;;;5.57;1.50;;;;;;;;;;4972968;28;20230;-77
2022/06/25 02:54:02;;;;;;;1.47;1.00;;;;;;;;;;4962025;28;20182;-77
2022/06/25 03:00:29;;;;;;;4.23;1.30;;;;;;;;;;4983718;28;20179;-77
2022/06/25 03:03:33;;;;;;;2.50;1.43;;;;;;;;;;4972236;28;20198;-77
2022/06/25 03:06:38;;;;;;;1.57;1.20;;;;;;;;;;4983834;28;20190;-77
2022/06/25 03:09:43;;;;;;;2.63;1.17;;;;;;;;;;4983961;28;20214;-77
2022/06/25 03:12:46;;;;;;;3.13;1.23;;;;;;;;;;4972153;28;20201;-78
2022/06/25 03:15:57;;;;;;;2.03;1.10;;;;;;;;;;4972485;28;20178;-77
2022/06/25 03:19:02;;;;;;;2.67;1.20;;;;;;;;;;4972304;28;20182;-76
2022/06/25 03:22:32;;;;;;;1.20;1.03;;;;;;;;;;4964370;28;20222;-76
2022/06/25 03:25:36;;;;;;;2.63;1.30;;;;;;;;;;4972171;28;20178;-76
2022/06/25 03:28:42;;;;;;;1.30;1.10;;;;;;;;;;4983580;28;20174;-77
2022/06/25 03:31:48;;;;;;;1.97;1.00;;;;;;;;;;4983209;28;20218;-77
2022/06/25 03:35:22;;;;;;;3.43;1.23;;;;;;;;;;4983123;28;20182;-77
2022/06/25 03:38:43;;;;;;;8.07;1.10;;;;;;;;;;4963278;28;20519;-77
2022/06/25 03:41:48;;;;;;;3.40;0.97;;;;;;;;;;4971685;28;20218;-77
2022/06/25 03:45:15;;;;;;;2.70;1.03;;;;;;;;;;4988778;28;20205;-76
2022/06/25 03:48:19;;;;;;;6.00;1.20;;;;;;;;;;4982935;28;20182;-76
2022/06/25 03:51:46;;;;;;;2.87;1.00;;;;;;;;;;4971473;28;20210;-76
2022/06/25 03:54:50;;;;;;;5.83;1.27;;;;;;;;;;4982577;28;20201;-77
2022/06/25 03:57:54;;;;;;;2.30;1.20;;;;;;;;;;4971726;28;20186;-77
2022/06/25 04:01:05;;;;;;;3.13;1.37;;;;;;;;;;4970960;28;20210;-76
2022/06/25 04:04:10;;;;;;;2.27;1.50;;;;;;;;;;4982372;28;20179;-76
2022/06/25 04:07:14;;;;;;;2.20;1.23;;;;;;;;;;4971497;28;20186;-76
2022/06/25 04:10:18;;;;;;;1.93;1.23;;;;;;;;;;4971037;28;20669;-77
2022/06/25 04:13:24;;;;;;;8.33;1.53;;;;;;;;;;5007903;23;20210;31
2022/06/25 04:16:29;;;;;;;3.23;1.07;;;;;;;;;;4923466;29;20220;-87
2022/06/25 04:19:41;;;;;;;3.23;1.40;;;;;;;;;;4924967;29;20631;-87
2022/06/25 04:22:49;;;;;;;2.03;1.30;;;;;;;;;;4935301;29;20189;-87
2022/06/25 04:25:54;;;;;;;2.27;1.43;;;;;;;;;;4895198;29;20197;-86
2022/06/25 04:29:04;;;;;;;4.03;0.90;;;;;;;;;;4884630;29;20189;-87
2022/06/25 04:32:29;;;;;;;2.30;1.40;;;;;;;;;;4905923;29;20193;-87
2022/06/25 04:35:54;;;;;;;2.67;1.10;;;;;;;;;;4895136;29;20196;-86
2022/06/25 04:39:27;;;;;;;5.50;1.30;;;;;;;;;;4905676;29;20185;-87
2022/06/25 04:42:31;;;;;;;5.20;1.57;;;;;;;;;;4905898;29;20640;-86
2022/06/25 04:45:35;;;;;;;5.27;1.50;;;;;;;;;;4884117;29;20699;-86
2022/06/25 04:48:57;;;;;;;1.60;1.23;;;;;;;;;;4886591;29;20186;-86
2022/06/25 04:52:03;;;;;;;4.07;1.20;;;;;;;;;;4884479;29;20181;-87
2022/06/25 04:55:08;;;;;;;3.30;1.20;;;;;;;;;;4894519;29;20221;-86
2022/06/25 04:58:12;;;;;;;3.30;1.00;;;;;;;;;;4886299;29;20628;-87
2022/06/25 05:01:54;;;;;;;1.60;1.00;;;;;;;;;;4903466;29;20185;-86
2022/06/25 05:05:16;;;;;;;2.13;1.30;;;;;;;;;;4900634;29;20213;-86
2022/06/25 05:08:20;;;;;;;2.50;1.00;;;;;;;;;;4909349;29;20189;-87
2022/06/25 05:11:24;;;;;;;2.70;1.57;;;;;;;;;;4909104;29;20216;-86
2022/06/25 05:14:29;;;;;;;6.37;1.60;;;;;;;;;;4898045;29;20236;-86
2022/06/25 05:17:34;;;;;;;6.13;1.70;;;;;;;;;;4898491;29;20292;-86
2022/06/25 05:20:40;;;;;;;5.30;1.50;;;;;;;;;;4898368;29;20177;-86
2022/06/25 05:23:45;;;;;;;4.23;1.40;;;;;;;;;;4887144;29;20224;-86
2022/06/25 05:26:49;;;;;;;6.00;2.00;;;;;;;;;;4898076;29;20185;-85
2022/06/25 05:30:19;;;;;;;3.87;2.13;;;;;;;;;;4887488;29;20525;-90
2022/06/25 05:33:23;;;;;;;3.13;1.70;;;;;;;;;;4898025;29;20189;-87
2022/06/25 05:36:27;;;;;;;1.90;1.70;;;;;;;;;;4898380;29;20185;-86
2022/06/25 05:39:31;;;;;;;2.37;1.20;;;;;;;;;;4887544;29;20185;-86
2022/06/25 05:42:36;;;;;;;1.43;1.20;;;;;;;;;;4887193;29;20513;-86
2022/06/25 05:45:40;;;;;;;1.90;1.20;;;;;;;;;;4898419;29;20220;-89
2022/06/25 05:49:12;;;;;;;1.60;1.20;;;;;;;;;;4898029;29;20189;-87
2022/06/25 05:52:22;;;;;;;2.53;1.20;;;;;;;;;;4888334;29;20177;-87
2022/06/25 05:55:27;;;;;;;2.97;1.13;;;;;;;;;;4897510;29;20220;-86
2022/06/25 05:58:31;;;;;;;3.13;1.40;;;;;;;;;;4898048;29;20636;-85
2022/06/25 06:01:34;;;;;;;3.47;1.30;;;;;;;;;;4886858;29;20184;-85
2022/06/25 06:04:38;;;;;;;3.60;1.50;;;;;;;;;;4908105;29;20221;-85
2022/06/25 06:07:43;;;;;;;4.53;1.50;;;;;;;;;;4897694;29;20196;-85
2022/06/25 06:10:47;;;;;;;2.43;1.07;;;;;;;;;;4896961;29;20224;-85
2022/06/25 06:13:51;;;;;;;2.67;1.30;;;;;;;;;;4907659;29;20232;-85
2022/06/25 06:16:56;;;;;;;5.07;1.40;;;;;;;;;;4908035;29;20189;-85
2022/06/25 06:20:00;;;;;;;3.70;1.03;;;;;;;;;;4907656;29;20541;-85
2022/06/25 06:23:05;;;;;;;3.03;1.00;;;;;;;;;;4907887;29;20576;-85
2022/06/25 06:26:09;;;;;;;1.00;0.90;;;;;;;;;;4897335;29;20181;-85
2022/06/25 06:29:13;;;;;;;2.47;1.13;;;;;;;;;;4886428;29;20180;-85
2022/06/25 06:32:17;;;;;;;2.70;1.50;;;;;;;;;;4907666;29;20212;-85
2022/06/25 06:35:21;;;;;;;0.97;0.97;;;;;;;;;;4896661;29;20224;-85
2022/06/25 06:38:26;;;;;;;2.63;0.93;;;;;;;;;;4886262;29;20204;-85
2022/06/25 06:41:30;;;;;;;2.37;1.00;;;;;;;;;;4897089;29;20185;-85
2022/06/25 06:44:34;;;;;;;2.03;1.43;;;;;;;;;;4897057;29;20224;-85
2022/06/25 06:47:38;;;;;;;3.33;1.20;;;;;;;;;;4896592;29;20652;-86
2022/06/25 06:50:42;;;;;;;2.30;1.00;;;;;;;;;;4896226;29;20680;-85
2022/06/25 06:53:46;;;;;;;1.77;0.93;;;;;;;;;;4886184;29;20224;-85
2022/06/25 06:56:50;;;;;;;2.70;0.90;;;;;;;;;;4885929;29;20188;-85
2022/06/25 06:59:54;;;;;;;2.70;1.10;;;;;;;;;;4896602;29;20192;-85
2022/06/25 07:02:58;;;;;;;2.53;0.83;;;;;;;;;;4885904;29;20185;-85
2022/06/25 07:06:03;;;;;;;2.70;1.13;;;;;;;;;;4896601;29;20181;-85
2022/06/25 07:09:07;;;;;;;3.67;1.00;;;;;;;;;;4907076;29;20202;-85
2022/06/25 07:12:11;;;;;;;1.80;1.00;;;;;;;;;;4906683;29;20220;-85
2022/06/25 07:15:15;;;;;;;2.23;0.90;;;;;;;;;;4895588;29;20240;-85
2022/06/25 07:18:19;;;;;;;1.97;0.90;;;;;;;;;;4918600;29;20185;-85
2022/06/25 07:21:24;;;;;;;3.10;0.90;;;;;;;;;;4896171;29;20181;-87
2022/06/25 07:24:28;;;;;;;3.33;1.30;;;;;;;;;;4906697;29;20216;-85
2022/06/25 07:27:33;;;;;;;3.80;1.10;;;;;;;;;;4895943;29;20188;-85
2022/06/25 07:30:37;;;;;;;1.73;1.20;;;;;;;;;;4896092;29;20521;-86
2022/06/25 07:33:41;;;;;;;4.20;1.27;;;;;;;;;;4896014;29;20220;-85
2022/06/25 07:36:46;;;;;;;2.30;1.10;;;;;;;;;;4895874;29;20193;-86
2022/06/25 07:39:50;;;;;;;1.70;0.93;;;;;;;;;;4885105;29;20184;-85
2022/06/25 07:42:54;;;;;;;1.60;1.10;;;;;;;;;;4896104;29;20177;-85
2022/06/25 07:45:58;;;;;;;4.90;1.47;;;;;;;;;;4884847;29;20180;-85
2022/06/25 07:49:02;;;;;;;1.77;1.20;;;;;;;;;;4884703;29;20189;-85
2022/06/25 07:52:07;;;;;;;1.77;1.10;;;;;;;;;;4906354;29;20204;-85
2022/06/25 07:55:11;;;;;;;1.67;1.13;;;;;;;;;;4895978;29;20222;-86
2022/06/25 07:58:15;;;;;;;3.70;1.10;;;;;;;;;;4896598;29;20189;-85
2022/06/25 08:01:19;;;;;;;2.07;1.10;;;;;;;;;;4885665;29;20514;-87
2022/06/25 08:04:23;;;;;;;5.20;1.30;;;;;;;;;;4885056;29;20221;-85
2022/06/25 08:07:27;;;;;;;5.53;1.20;;;;;;;;;;4896042;29;20205;-85
2022/06/25 08:10:31;;;;;;;3.10;1.10;;;;;;;;;;4898311;29;20195;-87
2022/06/25 08:13:37;;;;;;;3.63;1.10;;;;;;;;;;4880270;29;20197;-89
2022/06/25 08:16:44;;;;;;;1.00;0.90;;;;;;;;;;4899355;29;20654;-86
2022/06/25 08:19:54;;;;;;;3.57;1.53;;;;;;;;;;4889377;29;20197;-90
2022/06/25 08:22:58;;;;;;;5.10;1.00;;;;;;;;;;4878517;29;20175;-86
2022/06/25 08:26:05;;;;;;;2.93;0.93;;;;;;;;;;4876998;29;20190;-88
2022/06/25 08:29:09;;;;;;;1.43;1.03;;;;;;;;;;4888193;29;20188;-87
2022/06/25 08:32:13;;;;;;;3.37;0.90;;;;;;;;;;4876117;29;20214;-86
2022/06/25 08:35:18;;;;;;;1.37;0.90;;;;;;;;;;4876237;29;20222;-86
2022/06/25 08:38:22;;;;;;;5.23;1.20;;;;;;;;;;4865658;29;20195;-86
2022/06/25 08:41:27;;;;;;;1.17;0.90;;;;;;;;;;4866361;29;20202;-86
2022/06/25 08:44:32;;;;;;;4.13;1.30;;;;;;;;;;4886857;29;20219;-86
2022/06/25 08:47:51;;;;;;;0.85;0.85;;;;;;;;;;4886907;29;20191;-87
2022/06/25 08:50:56;;;;;;;1.65;0.85;;;;;;;;;;4886932;29;20190;-87
2022/06/25 08:54:01;;;;;;;2.63;1.23;;;;;;;;;;4898050;29;20231;-86
2022/06/25 08:57:08;;;;;;;3.08;0.88;;;;;;;;;;4899928;29;20209;-88
2022/06/25 09:00:13;;;;;;;3.75;0.93;;;;;;;;;;4906163;29;20522;-89
2022/06/25 09:03:17;;;;;;;1.38;0.90;;;;;;;;;;4904479;29;20650;-86
2022/06/25 09:06:21;;;;;;;2.17;0.80;;;;;;;;;;4903254;29;20539;-87
2022/06/25 09:09:25;;;;;;;2.70;0.80;;;;;;;;;;4876253;29;20186;-87
2022/06/25 09:12:29;;;;;;;1.15;0.70;;;;;;;;;;4889013;29;20205;-87
2022/06/25 09:15:42;;;;;;;1.55;0.70;;;;;;;;;;4905207;29;20575;-87
2022/06/25 09:18:47;;;;;;;3.00;0.82;;;;;;;;;;4890109;29;20204;-88
2022/06/25 09:21:51;;;;;;;1.42;0.80;;;;;;;;;;4905228;29;20204;-88
2022/06/25 09:24:58;;;;;;;0.90;0.63;;;;;;;;;;4894811;29;20226;-87
2022/06/25 09:28:02;;;;;;;1.05;0.65;;;;;;;;;;4894542;29;20207;-88
2022/06/25 09:31:07;;;;;;;0.85;0.40;;;;;;;;;;4883058;29;20207;-88
2022/06/25 09:34:12;;;;;;;2.58;0.65;;;;;;;;;;4895180;29;20291;-88
2022/06/25 09:37:26;;;;;;;1.13;0.80;;;;;;;;;;4894306;29;20201;-88
2022/06/25 09:40:31;;;;;;;3.20;0.80;;;;;;;;;;4894515;29;20185;-88
2022/06/25 09:43:36;;;;;;;0.65;0.50;;;;;;;;;;4883428;29;20621;-88
2022/06/25 09:47:13;;;;;;;1.52;0.43;;;;;;;;;;4909346;29;20194;-88
2022/06/25 09:50:19;;;;;;;2.42;0.63;;;;;;;;;;4901473;29;20177;-86
2022/06/25 09:53:27;;;;;;;4.65;0.80;;;;;;;;;;4913080;29;20181;-86
2022/06/25 09:56:33;;;;;;;2.10;0.80;;;;;;;;;;4892428;29;20197;-86
2022/06/25 09:59:39;;;;;;;1.00;0.65;;;;;;;;;;4891170;29;20185;-86
2022/06/25 10:02:48;;;;;;;1.77;0.80;;;;;;;;;;4908930;29;20209;-88
2022/06/25 10:05:53;;;;;;;0.90;0.70;;;;;;;;;;4908601;29;20561;-86
2022/06/25 10:08:59;;;;;;;1.98;0.63;;;;;;;;;;4897894;29;20189;-85
2022/06/25 10:12:05;;;;;;;3.20;0.95;;;;;;;;;;4897562;29;20645;-86
2022/06/25 10:15:09;;;;;;;1.05;0.70;;;;;;;;;;4947585;23;20246;-85
2022/06/25 10:18:14;;;;;;;0.80;0.70;;;;;;;;;;4943318;28;20183;-85
2022/06/25 10:21:20;;;;;;;1.25;0.60;;;;;;;;;;4943317;28;20183;-85
2022/06/25 10:24:25;;;;;;;2.28;0.80;;;;;;;;;;4953980;28;20215;-85
2022/06/25 10:27:38;;;;;;;0.68;0.52;;;;;;;;;;4965322;28;20187;-92
2022/06/25 10:30:51;;;;;;;0.70;0.70;;;;;;;;;;4934839;29;20180;-86
2022/06/25 10:33:59;;;;;;;2.33;0.70;;;;;;;;;;4945672;29;20176;-85
2022/06/25 10:37:04;;;;;;;1.20;0.70;;;;;;;;;;4950491;28;20195;-85
2022/06/25 10:40:08;;;;;;;1.27;0.63;;;;;;;;;;4955023;28;20194;-85
2022/06/25 10:43:42;;;;;;;1.42;0.70;;;;;;;;;;4973539;28;20214;-84
2022/06/25 10:46:46;;;;;;;1.77;0.60;;;;;;;;;;4983419;28;20195;-85
2022/06/25 10:49:50;;;;;;;1.02;0.70;;;;;;;;;;4943224;29;20196;-85
2022/06/25 10:53:03;;;;;;;1.50;0.68;;;;;;;;;;4952096;28;20550;-85
2022/06/25 10:56:15;;;;;;;0.90;0.90;;;;;;;;;;4948103;28;20556;-85
2022/06/25 10:59:31;;;;;;;1.52;0.85;;;;;;;;;;4964487;28;20531;-85
2022/06/25 11:02:40;;;;;;;1.70;0.77;;;;;;;;;;4954968;28;20223;-83
2022/06/25 11:05:45;;;;;;;1.65;0.57;;;;;;;;;;4935630;28;20224;-87
2022/06/25 11:08:50;;;;;;;1.95;0.50;;;;;;;;;;4972613;28;20629;-86
2022/06/25 11:11:56;;;;;;;0.65;0.50;;;;;;;;;;4983553;28;20174;-86
2022/06/25 11:15:04;;;;;;;0.90;0.57;;;;;;;;;;4960292;28;20226;-86
2022/06/25 11:18:10;;;;;;;2.15;0.70;;;;;;;;;;4944978;29;20189;-86
2022/06/25 11:21:35;;;;;;;2.55;0.70;;;;;;;;;;4936814;28;20186;-83
2022/06/25 11:28:47;;;;;;;2.10;0.90;;;;;;;;;;4971431;28;20222;-86
2022/06/25 11:31:26;;;;;;;2.55;0.47;;;;;;;;;;4983344;28;20187;-86
2022/06/25 11:34:31;;;;;;;2.00;0.88;;;;;;;;;;4958054;28;20214;-87
2022/06/25 11:37:35;;;;;;;2.03;0.70;;;;;;;;;;4971541;28;20191;-86
2022/06/25 11:40:39;;;;;;;0.60;0.60;;;;;;;;;;4953532;28;20186;-88
2022/06/25 11:43:43;;;;;;;1.20;0.80;;;;;;;;;;4942582;29;20219;-86
2022/06/25 11:46:48;;;;;;;2.05;0.60;;;;;;;;;;4945328;29;20188;-89
2022/06/25 11:49:54;;;;;;;1.65;0.60;;;;;;;;;;4924185;29;20203;-88
2022/06/25 11:52:58;;;;;;;2.95;0.80;;;;;;;;;;4967780;28;20179;-88
2022/06/25 11:56:04;;;;;;;1.17;0.70;;;;;;;;;;4960873;28;20214;-87
2022/06/25 11:59:08;;;;;;;1.25;0.70;;;;;;;;;;4961705;28;20191;-90
2022/06/25 12:02:12;;;;;;;1.50;0.60;;;;;;;;;;4968961;28;20223;-88
2022/06/25 12:05:17;;;;;;;3.50;0.57;;;;;;;;;;4963655;28;20222;-88
2022/06/25 12:08:23;;;;;;;1.98;0.65;;;;;;;;;;4971355;28;20174;-86
2022/06/25 12:11:28;;;;;;;1.27;0.70;;;;;;;;;;4961001;28;20183;-86
2022/06/25 12:14:33;;;;;;;2.90;0.52;;;;;;;;;;4971516;28;20226;-84
2022/06/25 12:17:40;;;;;;;2.53;0.60;;;;;;;;;;4952649;28;20191;-88
2022/06/25 12:21:16;;;;;;;0.93;0.70;;;;;;;;;;4963346;28;20630;-87
2022/06/25 12:24:20;;;;;;;0.55;0.52;;;;;;;;;;4959130;28;20195;-89
2022/06/25 12:27:25;;;;;;;1.70;0.50;;;;;;;;;;4967009;28;20202;-88
2022/06/25 12:30:32;;;;;;;2.70;0.50;;;;;;;;;;4952197;28;20187;-87
2022/06/25 12:33:36;;;;;;;0.40;0.40;;;;;;;;;;4948941;28;20190;-89
2022/06/25 12:36:41;;;;;;;0.50;0.50;;;;;;;;;;4951951;28;20195;-87
2022/06/25 12:39:45;;;;;;;3.70;0.50;;;;;;;;;;4964992;28;20199;-87
2022/06/25 12:42:54;;;;;;;1.73;0.68;;;;;;;;;;4971264;28;20211;-87
2022/06/25 12:46:08;;;;;;;1.08;0.60;;;;;;;;;;4959116;28;20218;-87
2022/06/25 12:49:12;;;;;;;0.85;0.50;;;;;;;;;;4956549;28;20187;-87
2022/06/25 12:52:19;;;;;;;3.38;0.63;;;;;;;;;;4951869;28;20525;-87
2022/06/25 12:55:24;;;;;;;0.73;0.40;;;;;;;;;;4929509;28;20222;-88
2022/06/25 12:58:35;;;;;;;1.15;0.55;;;;;;;;;;4956390;28;20265;-87
2022/06/25 13:01:39;;;;;;;0.50;0.50;;;;;;;;;;4971159;28;20516;-87
2022/06/25 13:04:43;;;;;;;0.30;0.30;;;;;;;;;;4959998;28;20206;-87
2022/06/25 13:07:47;;;;;;;1.23;0.60;;;;;;;;;;4947524;29;20200;-87
2022/06/25 13:10:51;;;;;;;0.50;0.50;;;;;;;;;;4932442;29;20183;-86
2022/06/25 13:13:56;;;;;;;0.80;0.60;;;;;;;;;;4932972;29;20508;-87
2022/06/25 13:17:00;;;;;;;0.82;0.45;;;;;;;;;;4943305;29;20184;-87
2022/06/25 13:20:05;;;;;;;1.73;0.47;;;;;;;;;;4968902;28;20186;-87
2022/06/25 13:23:09;;;;;;;2.53;0.45;;;;;;;;;;4963776;28;20229;-87
2022/06/25 13:26:13;;;;;;;0.73;0.40;;;;;;;;;;4935776;29;20220;-87
2022/06/25 13:29:18;;;;;;;1.50;0.60;;;;;;;;;;4925208;29;20183;-87
2022/06/25 13:32:22;;;;;;;0.63;0.50;;;;;;;;;;4960703;28;20190;-87
2022/06/25 13:35:26;;;;;;;2.22;0.52;;;;;;;;;;4960311;28;20689;-85
2022/06/25 13:38:30;;;;;;;0.90;0.70;;;;;;;;;;4958681;28;20206;-87
2022/06/25 13:41:41;;;;;;;1.20;0.50;;;;;;;;;;4953024;28;20195;-92
2022/06/25 13:44:45;;;;;;;0.80;0.50;;;;;;;;;;4952460;28;20211;-86
2022/06/25 13:47:49;;;;;;;0.52;0.47;;;;;;;;;;4943092;28;20191;-87
2022/06/25 13:50:53;;;;;;;1.70;0.70;;;;;;;;;;4955015;28;20188;-85
2022/06/25 13:53:57;;;;;;;1.02;0.55;;;;;;;;;;4955598;28;20180;-87
2022/06/25 13:57:02;;;;;;;1.70;0.50;;;;;;;;;;4960258;28;20646;-87
2022/06/25 14:00:06;;;;;;;1.30;0.60;;;;;;;;;;4971593;28;20189;-86
2022/06/25 14:03:12;;;;;;;2.53;0.52;;;;;;;;;;4984036;28;20226;-86
2022/06/25 14:06:16;;;;;;;2.38;0.60;;;;;;;;;;4984590;28;20577;-87
2022/06/25 14:09:20;;;;;;;1.95;0.80;;;;;;;;;;4962417;28;20194;-87
2022/06/25 14:12:24;;;;;;;0.93;0.73;;;;;;;;;;4996533;28;20198;-87
2022/06/25 14:15:29;;;;;;;2.72;0.70;;;;;;;;;;4962346;28;20230;-86
2022/06/25 14:18:33;;;;;;;2.35;0.57;;;;;;;;;;4962557;28;20198;-87
2022/06/25 14:21:37;;;;;;;3.42;0.68;;;;;;;;;;4962538;28;20202;-87
2022/06/25 14:28:04;;;;;;;0.82;0.55;;;;;;;;;;4973543;28;20183;-86
2022/06/25 14:31:08;;;;;;;0.60;0.57;;;;;;;;;;4972706;28;20182;-87
2022/06/25 14:34:12;;;;;;;1.00;0.70;;;;;;;;;;4962374;28;20182;-87
2022/06/25 14:43:49;;;;;;;4.10;0.80;;;;;;;;;;4984119;28;20206;-87
2022/06/25 14:46:54;;;;;;;1.52;0.60;;;;;;;;;;4973085;28;20174;-87
2022/06/25 14:49:58;;;;;;;0.75;0.60;;;;;;;;;;4972812;28;20182;-87
2022/06/25 14:53:02;;;;;;;0.98;0.40;;;;;;;;;;4962714;28;20178;-87
2022/06/25 14:56:07;;;;;;;1.40;0.50;;;;;;;;;;4961692;28;20222;-87
2022/06/25 14:59:11;;;;;;;0.60;0.60;;;;;;;;;;4972895;28;20179;-87
2022/06/25 15:02:15;;;;;;;1.67;0.55;;;;;;;;;;4961788;28;20634;-87
2022/06/25 15:05:19;;;;;;;0.77;0.43;;;;;;;;;;4961819;28;20210;-86
2022/06/25 15:08:23;;;;;;;1.98;0.60;;;;;;;;;;4972821;28;20182;-87
2022/06/25 15:11:27;;;;;;;1.20;0.57;;;;;;;;;;4972757;28;20186;-87
2022/06/25 15:14:32;;;;;;;1.98;0.70;;;;;;;;;;4972871;28;20222;-86
2022/06/25 15:17:36;;;;;;;1.13;0.63;;;;;;;;;;4961495;28;20530;-86
2022/06/25 15:20:40;;;;;;;1.98;1.45;;;;;;;;;;4983258;28;20638;-86
2022/06/25 15:23:44;;;;;;;2.08;1.02;;;;;;;;;;4972343;28;20210;-86
2022/06/25 15:26:49;;;;;;;0.60;0.50;;;;;;;;;;4961307;28;20529;-86
2022/06/25 15:29:53;;;;;;;1.88;0.60;;;;;;;;;;4961552;28;20633;-86
2022/06/25 15:32:57;;;;;;;1.15;0.60;;;;;;;;;;4961194;28;20183;-86
2022/06/25 15:36:01;;;;;;;1.00;0.88;;;;;;;;;;4971962;28;20285;-86
2022/06/25 15:39:05;;;;;;;0.55;0.50;;;;;;;;;;4972222;28;20523;-86
2022/06/25 15:42:09;;;;;;;3.28;0.70;;;;;;;;;;4971796;28;20522;-86
2022/06/25 15:45:14;;;;;;;1.58;0.63;;;;;;;;;;4961139;28;20226;-86
2022/06/25 15:48:18;;;;;;;3.00;0.80;;;;;;;;;;4972153;28;20178;-86
2022/06/25 15:51:22;;;;;;;0.90;0.52;;;;;;;;;;4970637;28;20194;-85
2022/06/25 15:54:27;;;;;;;0.98;0.70;;;;;;;;;;4948516;28;20211;-86
2022/06/25 15:57:31;;;;;;;2.05;0.60;;;;;;;;;;4951605;28;20187;-85
2022/06/25 16:00:37;;;;;;;0.77;0.70;;;;;;;;;;4952419;28;20634;-85
2022/06/25 16:03:41;;;;;;;2.55;1.40;;;;;;;;;;4951619;28;20691;-85
2022/06/25 16:06:45;;;;;;;1.50;0.65;;;;;;;;;;4960709;28;20188;-85
2022/06/25 16:09:49;;;;;;;1.02;0.68;;;;;;;;;;4971606;28;20183;-85
2022/06/25 16:12:53;;;;;;;0.77;0.75;;;;;;;;;;4960498;28;20190;-85
2022/06/25 16:15:57;;;;;;;1.80;0.70;;;;;;;;;;4967975;23;20603;-86
2022/06/25 16:19:02;;;;;;;0.90;0.60;;;;;;;;;;4934423;29;20528;-86
2022/06/25 16:22:06;;;;;;;0.93;0.82;;;;;;;;;;4925887;28;20534;-87
2022/06/25 16:25:11;;;;;;;0.70;0.60;;;;;;;;;;4951693;28;20232;-86
2022/06/25 16:28:15;;;;;;;3.05;0.70;;;;;;;;;;4952311;28;20202;-86
2022/06/25 16:31:20;;;;;;;1.40;0.60;;;;;;;;;;4951565;28;20205;-87
2022/06/25 16:34:23;;;;;;;0.80;0.60;;;;;;;;;;4919711;28;20555;-86
2022/06/25 16:37:28;;;;;;;0.40;0.40;;;;;;;;;;4924447;29;20206;-86
2022/06/25 16:40:32;;;;;;;1.75;0.60;;;;;;;;;;4946875;28;20189;-83
2022/06/25 16:48:16;;;;;;;1.95;0.50;;;;;;;;;;4960699;28;20186;-86
2022/06/25 16:51:21;;;;;;;0.73;0.70;;;;;;;;;;4940867;28;20183;-86
2022/06/25 16:54:30;;;;;;;1.65;0.52;;;;;;;;;;4954183;28;20177;-86
2022/06/25 16:57:46;;;;;;;0.75;0.70;;;;;;;;;;4966852;28;20531;-86
2022/06/25 17:02:07;;;;;;;1.45;0.50;;;;;;;;;;4973729;28;20634;-86
2022/06/25 17:09:39;;;;;;;0.60;0.60;;;;;;;;;;4957601;29;20203;-86
2022/06/25 17:12:46;;;;;;;0.80;0.70;;;;;;;;;;4962124;28;20212;-86
2022/06/25 17:16:06;;;;;;;0.80;0.60;;;;;;;;;;4944565;28;20237;-86
2022/06/25 17:19:24;;;;;;;0.73;0.73;;;;;;;;;;4946508;28;20185;-86
2022/06/25 17:22:29;;;;;;;1.73;0.70;;;;;;;;;;4966202;28;20189;-86
2022/06/25 17:25:34;;;;;;;1.23;0.80;;;;;;;;;;4944284;28;20232;-86
2022/06/25 17:28:38;;;;;;;1.37;0.80;;;;;;;;;;4966262;28;20203;-86
2022/06/25 17:31:42;;;;;;;0.87;0.70;;;;;;;;;;4945958;28;20202;-86
2022/06/25 17:34:46;;;;;;;0.73;0.50;;;;;;;;;;4944933;28;20173;-86
2022/06/25 17:37:50;;;;;;;0.63;0.60;;;;;;;;;;4966516;28;20183;-86
2022/06/25 17:40:55;;;;;;;1.40;0.70;;;;;;;;;;4944460;28;20184;-86
2022/06/25 17:43:59;;;;;;;2.13;0.70;;;;;;;;;;4955095;28;20214;-86
2022/06/25 17:47:04;;;;;;;0.77;0.70;;;;;;;;;;4966648;28;20187;-86
2022/06/25 17:50:09;;;;;;;0.83;0.67;;;;;;;;;;4966654;28;20184;-86
2022/06/25 17:53:14;;;;;;;0.80;0.70;;;;;;;;;;4945123;28;20524;-85
2022/06/25 17:56:21;;;;;;;1.27;0.90;;;;;;;;;;4945418;28;20697;-86
2022/06/25 17:59:25;;;;;;;0.97;0.63;;;;;;;;;;4967857;28;20181;-86
2022/06/25 18:02:29;;;;;;;2.40;0.70;;;;;;;;;;4944480;28;20176;-86
2022/06/25 18:05:34;;;;;;;0.70;0.70;;;;;;;;;;4943698;28;20233;-86
2022/06/25 18:08:38;;;;;;;1.13;0.70;;;;;;;;;;4955133;28;20185;-86
2022/06/25 18:11:45;;;;;;;1.03;0.70;;;;;;;;;;4955308;28;20523;-86
2022/06/25 18:14:49;;;;;;;1.00;0.50;;;;;;;;;;4932822;28;20567;-86
2022/06/25 18:18:03;;;;;;;3.57;0.70;;;;;;;;;;4954681;28;20204;-86
2022/06/25 18:21:12;;;;;;;1.13;0.57;;;;;;;;;;4947176;28;20188;-86
2022/06/25 18:24:16;;;;;;;0.50;0.50;;;;;;;;;;4954386;28;20552;-86
2022/06/25 18:27:20;;;;;;;2.07;0.60;;;;;;;;;;4954047;28;20189;-86
2022/06/25 18:30:24;;;;;;;2.07;0.50;;;;;;;;;;4965134;28;20175;-86
2022/06/25 18:33:28;;;;;;;1.80;0.80;;;;;;;;;;4964825;28;20196;-86
2022/06/25 18:36:33;;;;;;;2.83;0.77;;;;;;;;;;4942825;28;20567;-86
2022/06/25 18:39:37;;;;;;;0.90;0.70;;;;;;;;;;4953792;28;20191;-85
2022/06/25 18:42:42;;;;;;;3.60;0.90;;;;;;;;;;4953907;28;20185;-86
2022/06/25 18:45:46;;;;;;;0.87;0.80;;;;;;;;;;4953733;28;20689;-86
2022/06/25 18:48:50;;;;;;;2.70;0.70;;;;;;;;;;4942928;28;20183;-86
2022/06/25 18:51:54;;;;;;;2.07;0.87;;;;;;;;;;4958271;28;20183;-86
2022/06/25 18:54:58;;;;;;;2.20;0.70;;;;;;;;;;4966573;28;20210;-86
2022/06/25 18:58:02;;;;;;;1.90;0.63;;;;;;;;;;4944310;28;20622;-86
2022/06/25 19:01:07;;;;;;;0.80;0.70;;;;;;;;;;4944779;28;20183;-86
2022/06/25 19:04:11;;;;;;;0.60;0.60;;;;;;;;;;4955334;28;20215;-86